createdAt,value
2018-11-02T00:00:21.074Z,85.81
2018-11-02T00:01:21.002Z,85.71
2018-11-02T00:02:20.959Z,85.71
2018-11-02T00:03:20.989Z,85.55
2018-11-02T00:04:20.947Z,85.50
2018-11-02T00:05:20.939Z,85.75
2018-11-02T00:06:21.016Z,85.50
2018-11-02T00:07:20.964Z,85.96
2018-11-02T00:08:20.901Z,85.71
2018-11-02T00:09:20.894Z,84.99
2018-11-02T00:10:20.869Z,85.14
2018-11-02T00:11:20.896Z,85.50
2018-11-02T00:12:20.933Z,85.10
2018-11-02T00:13:20.882Z,84.79
2018-11-02T00:14:20.833Z,84.89
2018-11-02T00:15:20.822Z,84.99
2018-11-02T00:16:20.811Z,84.89
2018-11-02T00:17:20.828Z,84.99
2018-11-02T00:18:20.812Z,84.89
2018-11-02T00:19:20.771Z,85.10
2018-11-02T00:20:20.762Z,84.99
2018-11-02T00:21:20.756Z,85.10
2018-11-02T00:22:20.763Z,84.99
2018-11-02T00:23:20.762Z,85.30
2018-11-02T00:24:20.722Z,85.30
2018-11-02T00:25:20.707Z,85.30
2018-11-02T00:26:20.726Z,84.99
2018-11-02T00:27:20.715Z,84.99
2018-11-02T00:28:20.673Z,84.79
2018-11-02T00:29:20.660Z,84.69
2018-11-02T00:30:20.686Z,85.10
2018-11-02T00:31:20.691Z,84.79
2018-11-02T00:32:20.654Z,84.69
2018-11-02T00:33:20.622Z,84.38
2018-11-02T00:34:20.647Z,84.28
2018-11-02T00:35:20.604Z,84.07
2018-11-02T00:36:20.597Z,84.17
2018-11-02T00:37:20.572Z,84.38
2018-11-02T00:38:20.599Z,84.48
2018-11-02T00:39:20.553Z,83.87
2018-11-02T00:40:20.541Z,84.48
2018-11-02T00:41:20.584Z,84.58
2018-11-02T00:42:20.516Z,84.07
2018-11-02T00:43:20.511Z,83.97
2018-11-02T00:44:20.495Z,83.87
2018-11-02T00:45:20.484Z,84.07
2018-11-02T00:46:20.505Z,84.28
2018-11-02T00:47:20.500Z,84.28
2018-11-02T00:48:20.531Z,84.38
2018-11-02T00:49:20.438Z,83.46
2018-11-02T00:50:20.424Z,82.84
2018-11-02T00:51:20.413Z,83.05
2018-11-02T00:52:20.402Z,83.15
2018-11-02T00:53:20.436Z,83.15
2018-11-02T00:54:20.389Z,83.36
2018-11-02T00:55:20.371Z,83.46
2018-11-02T00:56:20.386Z,83.46
2018-11-02T00:57:20.351Z,83.15
2018-11-02T00:58:20.338Z,82.95
2018-11-02T00:59:20.332Z,83.05
2018-11-02T01:00:20.344Z,82.95
2018-11-02T01:01:20.339Z,83.05
2018-11-02T01:02:20.294Z,83.05
2018-11-02T01:03:20.282Z,82.43
2018-11-02T01:04:20.269Z,82.84
2018-11-02T01:05:20.287Z,82.95
2018-11-02T01:06:20.246Z,83.05
2018-11-02T01:07:20.267Z,83.46
2018-11-02T01:08:20.228Z,83.05
2018-11-02T01:09:20.213Z,82.43
2018-11-02T01:10:20.233Z,83.09
2018-11-02T01:11:20.280Z,83.05
2018-11-02T01:12:20.222Z,82.89
2018-11-02T01:13:20.175Z,83.50
2018-11-02T01:14:20.188Z,83.29
2018-11-02T01:15:20.145Z,83.39
2018-11-02T01:16:20.139Z,84.31
2018-11-02T01:17:20.171Z,83.70
2018-11-02T01:18:20.136Z,84.31
2018-11-02T01:19:20.104Z,83.39
2018-11-02T01:20:20.090Z,84.22
2018-11-02T01:21:20.112Z,84.22
2018-11-02T01:22:20.107Z,84.25
2018-11-02T01:23:20.060Z,84.01
2018-11-02T01:24:20.053Z,84.11
2018-11-02T01:25:20.042Z,84.11
2018-11-02T01:26:20.033Z,84.52
2018-11-02T01:27:20.111Z,84.01
2018-11-02T01:28:20.005Z,83.25
2018-11-02T01:29:20.029Z,83.36
2018-11-02T01:30:19.995Z,83.15
2018-11-02T01:31:19.976Z,83.39
2018-11-02T01:32:20.023Z,82.98
2018-11-02T01:33:19.952Z,83.05
2018-11-02T01:34:19.937Z,83.39
2018-11-02T01:35:19.930Z,82.89
2018-11-02T01:36:19.916Z,82.98
2018-11-02T01:37:19.933Z,83.39
2018-11-02T01:38:19.896Z,82.98
2018-11-02T01:39:19.900Z,83.05
2018-11-02T01:40:19.896Z,83.19
2018-11-02T01:41:19.865Z,83.09
2018-11-02T01:42:19.890Z,83.25
2018-11-02T01:43:19.849Z,83.39
2018-11-02T01:44:19.827Z,82.89
2018-11-02T01:45:19.818Z,83.09
2018-11-02T01:46:19.890Z,82.98
2018-11-02T01:47:19.799Z,83.09
2018-11-02T01:48:19.787Z,83.05
2018-11-02T01:49:19.774Z,82.98
2018-11-02T01:50:19.772Z,82.68
2018-11-02T01:51:19.782Z,82.54
2018-11-02T01:52:19.790Z,83.09
2018-11-02T01:53:19.772Z,83.39
2018-11-02T01:54:19.730Z,83.19
2018-11-02T01:55:19.707Z,82.89
2018-11-02T01:56:19.723Z,83.09
2018-11-02T01:57:19.684Z,83.05
2018-11-02T01:58:19.674Z,82.75
2018-11-02T01:59:19.700Z,82.89
2018-11-02T02:00:19.657Z,82.57
2018-11-02T02:01:19.662Z,82.37
2018-11-02T02:02:19.632Z,82.27
2018-11-02T02:03:19.615Z,82.78
2018-11-02T02:04:19.607Z,82.89
2018-11-02T02:05:19.598Z,82.89
2018-11-02T02:06:19.610Z,82.84
2018-11-02T02:07:20.305Z,82.89
2018-11-02T02:08:19.563Z,82.89
2018-11-02T02:09:19.561Z,82.98
2018-11-02T02:10:19.569Z,82.89
2018-11-02T02:11:19.531Z,82.17
2018-11-02T02:12:19.550Z,82.89
2018-11-02T02:13:19.558Z,82.78
2018-11-02T02:14:19.501Z,82.78
2018-11-02T02:15:19.531Z,83.19
2018-11-02T02:16:19.478Z,82.78
2018-11-02T02:17:19.466Z,82.75
2018-11-02T02:18:19.454Z,82.89
2018-11-02T02:19:19.445Z,82.98
2018-11-02T02:20:19.470Z,82.17
2018-11-02T02:21:19.431Z,82.27
2018-11-02T02:22:19.411Z,82.57
2018-11-02T02:23:19.407Z,82.98
2018-11-02T02:24:19.453Z,82.89
2018-11-02T02:25:19.382Z,82.57
2018-11-02T02:26:19.376Z,82.95
2018-11-02T02:27:19.357Z,82.98
2018-11-02T02:28:19.344Z,82.68
2018-11-02T02:29:19.363Z,82.98
2018-11-02T02:30:19.325Z,83.09
2018-11-02T02:31:19.308Z,83.19
2018-11-02T02:32:19.338Z,83.09
2018-11-02T02:33:19.287Z,83.09
2018-11-02T02:34:19.279Z,83.19
2018-11-02T02:35:19.290Z,83.29
2018-11-02T02:36:19.288Z,83.09
2018-11-02T02:37:19.251Z,83.19
2018-11-02T02:38:19.241Z,83.39
2018-11-02T02:39:19.221Z,82.98
2018-11-02T02:40:19.245Z,83.03
2018-11-02T02:41:19.232Z,82.98
2018-11-02T02:42:19.195Z,82.68
2018-11-02T02:43:19.188Z,82.98
2018-11-02T02:44:19.170Z,82.89
2018-11-02T02:45:19.153Z,82.98
2018-11-02T02:46:19.177Z,82.89
2018-11-02T02:47:19.181Z,83.09
2018-11-02T02:48:19.124Z,82.48
2018-11-02T02:49:19.143Z,82.37
2018-11-02T02:50:19.100Z,82.27
2018-11-02T02:51:19.091Z,82.48
2018-11-02T02:52:19.136Z,82.51
2018-11-02T02:53:19.070Z,82.27
2018-11-02T02:54:19.069Z,81.45
2018-11-02T02:55:19.044Z,82.27
2018-11-02T02:56:19.036Z,82.48
2018-11-02T02:57:19.048Z,81.86
2018-11-02T02:58:19.021Z,82.07
2018-11-02T02:59:19.010Z,82.27
2018-11-02T03:00:19.021Z,82.07
2018-11-02T03:01:18.996Z,82.48
2018-11-02T03:02:18.979Z,82.07
2018-11-02T03:03:18.969Z,81.86
2018-11-02T03:04:18.997Z,81.96
2018-11-02T03:05:18.937Z,82.27
2018-11-02T03:06:18.922Z,81.76
2018-11-02T03:07:18.913Z,82.17
2018-11-02T03:08:18.900Z,81.59
2018-11-02T03:09:18.926Z,81.96
2018-11-02T03:10:18.920Z,82.07
2018-11-02T03:11:19.039Z,82.10
2018-11-02T03:12:18.856Z,82.31
2018-11-02T03:13:18.886Z,82.31
2018-11-02T03:14:18.873Z,82.21
2018-11-02T03:15:18.824Z,81.79
2018-11-02T03:16:18.816Z,82.17
2018-11-02T03:17:18.801Z,81.70
2018-11-02T03:18:18.798Z,81.59
2018-11-02T03:19:18.821Z,81.04
2018-11-02T03:20:18.777Z,81.59
2018-11-02T03:21:18.760Z,81.96
2018-11-02T03:22:18.847Z,81.56
2018-11-02T03:23:18.767Z,81.96
2018-11-02T03:24:18.734Z,81.04
2018-11-02T03:25:18.725Z,81.18
2018-11-02T03:26:18.711Z,80.98
2018-11-02T03:27:18.694Z,80.94
2018-11-02T03:28:18.716Z,81.49
2018-11-02T03:29:18.670Z,82.10
2018-11-02T03:30:18.704Z,81.90
2018-11-02T03:31:18.697Z,82.21
2018-11-02T03:32:18.676Z,82.00
2018-11-02T03:33:18.632Z,81.49
2018-11-02T03:34:18.618Z,81.29
2018-11-02T03:35:18.624Z,81.70
2018-11-02T03:36:18.645Z,81.49
2018-11-02T03:37:18.624Z,81.49
2018-11-02T03:38:18.576Z,81.59
2018-11-02T03:39:18.559Z,81.29
2018-11-02T03:40:18.547Z,81.94
2018-11-02T03:41:18.582Z,82.04
2018-11-02T03:42:18.527Z,82.35
2018-11-02T03:43:18.551Z,82.24
2018-11-02T03:44:18.507Z,82.21
2018-11-02T03:45:18.498Z,82.24
2018-11-02T03:46:18.502Z,82.00
2018-11-02T03:47:18.504Z,81.73
2018-11-02T03:48:18.493Z,81.43
2018-11-02T03:49:18.480Z,81.73
2018-11-02T03:50:18.446Z,82.04
2018-11-02T03:51:18.433Z,82.21
2018-11-02T03:52:18.460Z,81.90
2018-11-02T03:53:18.407Z,82.51
2018-11-02T03:54:18.399Z,82.35
2018-11-02T03:55:18.387Z,82.35
2018-11-02T03:56:19.291Z,82.35
2018-11-02T03:57:18.365Z,82.24
2018-11-02T03:58:18.353Z,82.35
2018-11-02T03:59:18.342Z,82.04
2018-11-02T04:00:18.329Z,82.14
2018-11-02T04:01:18.355Z,82.14
2018-11-02T04:02:18.372Z,82.24
2018-11-02T04:03:18.302Z,82.04
2018-11-02T04:04:18.286Z,82.14
2018-11-02T04:05:18.285Z,82.24
2018-11-02T04:06:18.295Z,82.45
2018-11-02T04:07:18.299Z,81.94
2018-11-02T04:08:18.255Z,82.35
2018-11-02T04:09:18.258Z,81.84
2018-11-02T04:10:18.222Z,82.55
2018-11-02T04:11:18.261Z,82.24
2018-11-02T04:12:18.198Z,82.04
2018-11-02T04:13:18.196Z,82.14
2018-11-02T04:14:18.264Z,81.73
2018-11-02T04:15:18.166Z,82.04
2018-11-02T04:16:18.221Z,82.04
2018-11-02T04:17:18.169Z,82.14
2018-11-02T04:18:18.143Z,82.24
2018-11-02T04:19:18.130Z,82.45
2018-11-02T04:20:18.114Z,82.35
2018-11-02T04:21:18.138Z,82.35
2018-11-02T04:22:18.104Z,82.55
2018-11-02T04:23:18.083Z,82.45
2018-11-02T04:24:18.073Z,83.31
2018-11-02T04:25:18.061Z,83.10
2018-11-02T04:26:18.153Z,83.17
2018-11-02T04:27:18.037Z,83.27
2018-11-02T04:28:18.030Z,83.06
2018-11-02T04:29:18.044Z,83.47
2018-11-02T04:30:18.006Z,82.79
2018-11-02T04:31:17.996Z,83.00
2018-11-02T04:32:18.009Z,82.79
2018-11-02T04:33:17.973Z,82.86
2018-11-02T04:34:17.963Z,82.79
2018-11-02T04:35:17.950Z,82.39
2018-11-02T04:36:17.988Z,83.31
2018-11-02T04:37:17.964Z,82.69
2018-11-02T04:38:17.921Z,83.00
2018-11-02T04:39:17.908Z,83.20
2018-11-02T04:40:17.891Z,83.10
2018-11-02T04:41:17.884Z,83.20
2018-11-02T04:42:17.973Z,83.82
2018-11-02T04:43:17.900Z,83.51
2018-11-02T04:44:17.862Z,83.82
2018-11-02T04:45:17.841Z,84.12
2018-11-02T04:46:17.840Z,84.03
2018-11-02T04:47:17.848Z,84.68
2018-11-02T04:48:17.805Z,84.88
2018-11-02T04:49:17.824Z,85.09
2018-11-02T04:50:17.783Z,85.19
2018-11-02T04:51:17.842Z,85.39
2018-11-02T04:52:17.765Z,85.19
2018-11-02T04:53:17.754Z,86.32
2018-11-02T04:54:17.786Z,86.01
2018-11-02T04:55:17.733Z,85.91
2018-11-02T04:56:17.744Z,86.05
2018-11-02T04:57:17.711Z,86.05
2018-11-02T04:58:18.334Z,85.71
2018-11-02T04:59:17.687Z,86.05
2018-11-02T05:00:17.687Z,86.52
2018-11-02T05:01:17.665Z,85.85
2018-11-02T05:02:17.685Z,86.05
2018-11-02T05:03:17.667Z,86.46
2018-11-02T05:04:17.628Z,86.36
2018-11-02T05:05:17.621Z,86.98
2018-11-02T05:06:17.639Z,86.77
2018-11-02T05:07:17.602Z,86.57
2018-11-02T05:08:17.588Z,86.87
2018-11-02T05:09:17.607Z,86.57
2018-11-02T05:10:17.597Z,87.08
2018-11-02T05:11:17.601Z,87.08
2018-11-02T05:12:17.548Z,85.85
2018-11-02T05:13:17.535Z,85.85
2018-11-02T05:14:17.551Z,85.74
2018-11-02T05:15:17.513Z,85.64
2018-11-02T05:16:17.561Z,86.15
2018-11-02T05:17:17.502Z,85.23
2018-11-02T05:18:17.496Z,85.33
2018-11-02T05:19:17.512Z,85.13
2018-11-02T05:20:17.472Z,85.23
2018-11-02T05:21:17.510Z,84.61
2018-11-02T05:22:17.566Z,84.72
2018-11-02T05:23:17.449Z,85.54
2018-11-02T05:24:17.413Z,85.33
2018-11-02T05:25:17.423Z,85.23
2018-11-02T05:26:17.399Z,85.33
2018-11-02T05:27:17.381Z,85.03
2018-11-02T05:28:17.361Z,84.61
2018-11-02T05:29:17.358Z,84.72
2018-11-02T05:30:17.391Z,84.72
2018-11-02T05:31:17.338Z,85.47
2018-11-02T05:32:17.324Z,86.36
2018-11-02T05:33:17.317Z,85.68
2018-11-02T05:34:17.295Z,86.25
2018-11-02T05:35:17.325Z,85.99
2018-11-02T05:36:17.281Z,86.81
2018-11-02T05:37:17.296Z,87.02
2018-11-02T05:38:17.263Z,87.32
2018-11-02T05:39:17.315Z,87.53
2018-11-02T05:40:17.230Z,87.94
2018-11-02T05:41:17.219Z,87.84
2018-11-02T05:42:17.418Z,88.45
2018-11-02T05:43:17.196Z,88.14
2018-11-02T05:44:17.186Z,88.14
2018-11-02T05:45:17.175Z,88.86
2018-11-02T05:46:17.207Z,88.14
2018-11-02T05:47:17.261Z,87.63
2018-11-02T05:48:17.144Z,88.24
2018-11-02T05:49:17.134Z,88.04
2018-11-02T05:50:17.121Z,87.84
2018-11-02T05:51:17.144Z,87.73
2018-11-02T05:52:17.099Z,87.94
2018-11-02T05:53:17.090Z,87.94
2018-11-02T05:54:17.904Z,87.94
2018-11-02T05:55:17.065Z,87.94
2018-11-02T05:56:17.092Z,87.94
2018-11-02T05:57:17.039Z,87.94
2018-11-02T05:58:17.035Z,88.14
2018-11-02T05:59:17.067Z,88.04
2018-11-02T06:00:17.016Z,87.94
2018-11-02T06:01:16.999Z,87.90
2018-11-02T06:02:17.086Z,88.04
2018-11-02T06:03:16.978Z,87.84
2018-11-02T06:04:16.996Z,86.98
2018-11-02T06:05:16.957Z,87.32
2018-11-02T06:06:16.971Z,86.91
2018-11-02T06:07:16.933Z,88.04
2018-11-02T06:08:16.955Z,87.94
2018-11-02T06:09:16.913Z,87.94
2018-11-02T06:10:16.906Z,87.94
2018-11-02T06:11:16.889Z,87.84
2018-11-02T06:12:16.881Z,87.94
2018-11-02T06:13:16.900Z,87.73
2018-11-02T06:14:16.858Z,87.84
2018-11-02T06:15:16.843Z,87.73
2018-11-02T06:16:16.835Z,87.73
2018-11-02T06:17:16.824Z,88.04
2018-11-02T06:18:16.937Z,88.00
2018-11-02T06:19:16.796Z,87.94
2018-11-02T06:20:16.810Z,87.94
2018-11-02T06:21:16.813Z,88.04
2018-11-02T06:22:17.396Z,87.94
2018-11-02T06:23:16.756Z,88.14
2018-11-02T06:24:16.806Z,87.49
2018-11-02T06:25:16.738Z,87.02
2018-11-02T06:26:16.752Z,86.98
2018-11-02T06:27:16.717Z,87.22
2018-11-02T06:28:16.699Z,87.84
2018-11-02T06:29:16.692Z,87.38
2018-11-02T06:30:16.717Z,87.38
2018-11-02T06:31:16.667Z,87.43
2018-11-02T06:32:16.692Z,86.91
2018-11-02T06:33:16.654Z,87.43
2018-11-02T06:34:16.686Z,87.12
2018-11-02T06:35:16.621Z,87.22
2018-11-02T06:36:16.620Z,87.94
2018-11-02T06:37:16.655Z,87.53
2018-11-02T06:38:16.584Z,88.04
2018-11-02T06:39:16.588Z,88.04
2018-11-02T06:40:16.573Z,87.12
2018-11-02T06:41:16.554Z,87.12
2018-11-02T06:42:16.625Z,88.04
2018-11-02T06:43:16.534Z,87.94
2018-11-02T06:44:16.523Z,87.84
2018-11-02T06:45:16.553Z,87.73
2018-11-02T06:46:16.504Z,87.94
2018-11-02T06:47:16.525Z,87.90
2018-11-02T06:48:16.477Z,87.28
2018-11-02T06:49:16.471Z,87.49
2018-11-02T06:50:16.455Z,86.87
2018-11-02T06:51:16.443Z,86.46
2018-11-02T06:52:16.465Z,85.74
2018-11-02T06:53:16.429Z,85.85
2018-11-02T06:54:16.411Z,85.64
2018-11-02T06:55:16.422Z,85.99
2018-11-02T06:56:16.433Z,86.09
2018-11-02T06:57:16.378Z,86.36
2018-11-02T06:58:16.428Z,85.95
2018-11-02T06:59:16.507Z,85.95
2018-11-02T07:00:16.394Z,85.74
2018-11-02T07:01:16.378Z,85.64
2018-11-02T07:02:16.335Z,85.74
2018-11-02T07:03:16.312Z,85.13
2018-11-02T07:04:16.345Z,85.23
2018-11-02T07:05:16.293Z,85.54
2018-11-02T07:06:16.278Z,85.44
2018-11-02T07:07:16.436Z,85.03
2018-11-02T07:08:16.291Z,85.27
2018-11-02T07:09:16.287Z,84.92
2018-11-02T07:10:16.271Z,85.23
2018-11-02T07:11:16.257Z,84.72
2018-11-02T07:12:16.211Z,84.96
2018-11-02T07:13:16.234Z,84.41
2018-11-02T07:14:16.204Z,84.66
2018-11-02T07:15:16.182Z,84.55
2018-11-02T07:16:16.202Z,84.61
2018-11-02T07:17:16.182Z,84.92
2018-11-02T07:18:16.146Z,84.61
2018-11-02T07:19:16.144Z,84.61
2018-11-02T07:20:16.153Z,84.82
2018-11-02T07:21:16.117Z,84.10
2018-11-02T07:22:16.101Z,84.61
2018-11-02T07:23:16.097Z,84.72
2018-11-02T07:24:16.122Z,84.72
2018-11-02T07:25:16.148Z,84.61
2018-11-02T07:26:16.061Z,85.13
2018-11-02T07:27:16.083Z,85.30
2018-11-02T07:28:16.034Z,84.52
2018-11-02T07:29:16.032Z,83.90
2018-11-02T07:30:16.183Z,84.47
2018-11-02T07:31:16.261Z,84.06
2018-11-02T07:32:15.992Z,84.47
2018-11-02T07:33:16.009Z,83.49
2018-11-02T07:34:16.085Z,83.76
2018-11-02T07:35:16.051Z,84.41
2018-11-02T07:36:15.993Z,83.80
2018-11-02T07:37:16.468Z,83.49
2018-11-02T07:38:16.070Z,84.41
2018-11-02T07:39:15.916Z,84.52
2018-11-02T07:40:15.908Z,84.41
2018-11-02T07:41:15.894Z,84.52
2018-11-02T07:42:15.927Z,83.80
2018-11-02T07:43:15.876Z,83.69
2018-11-02T07:44:15.870Z,83.39
2018-11-02T07:45:15.857Z,83.07
2018-11-02T07:46:15.840Z,83.73
2018-11-02T07:47:15.868Z,83.69
2018-11-02T07:48:15.821Z,84.45
2018-11-02T07:49:15.874Z,84.14
2018-11-02T07:50:15.807Z,84.41
2018-11-02T07:51:15.784Z,84.52
2018-11-02T07:52:15.820Z,84.31
2018-11-02T07:53:15.768Z,84.31
2018-11-02T07:54:15.845Z,84.31
2018-11-02T07:55:15.744Z,84.20
2018-11-02T07:56:15.731Z,83.59
2018-11-02T07:57:15.726Z,83.49
2018-11-02T07:58:15.705Z,83.39
2018-11-02T07:59:15.729Z,83.69
2018-11-02T08:00:15.729Z,83.49
2018-11-02T08:01:15.674Z,83.49
2018-11-02T08:02:15.672Z,83.49
2018-11-02T08:03:15.657Z,83.90
2018-11-02T08:04:15.654Z,83.90
2018-11-02T08:05:15.661Z,83.69
2018-11-02T08:06:15.623Z,83.90
2018-11-02T08:07:15.631Z,83.34
2018-11-02T08:08:15.596Z,83.49
2018-11-02T08:09:15.586Z,83.55
2018-11-02T08:10:15.750Z,83.65
2018-11-02T08:11:15.628Z,83.34
2018-11-02T08:12:15.561Z,82.93
2018-11-02T08:13:15.550Z,82.93
2018-11-02T08:14:15.566Z,82.42
2018-11-02T08:15:15.523Z,82.42
2018-11-02T08:16:15.511Z,82.77
2018-11-02T08:17:15.528Z,82.73
2018-11-02T08:18:15.490Z,83.07
2018-11-02T08:19:15.486Z,83.39
2018-11-02T08:20:15.469Z,83.59
2018-11-02T08:21:15.465Z,82.93
2018-11-02T08:22:15.498Z,82.12
2018-11-02T08:23:15.434Z,81.91
2018-11-02T08:24:15.427Z,82.42
2018-11-02T08:25:15.449Z,81.95
2018-11-02T08:26:15.488Z,82.63
2018-11-02T08:27:15.393Z,82.26
2018-11-02T08:28:15.381Z,82.05
2018-11-02T08:29:15.374Z,82.46
2018-11-02T08:30:15.382Z,82.56
2018-11-02T08:31:15.359Z,82.63
2018-11-02T08:32:15.546Z,82.46
2018-11-02T08:33:15.350Z,82.63
2018-11-02T08:34:15.875Z,82.53
2018-11-02T08:35:15.314Z,82.01
2018-11-02T08:36:15.297Z,82.73
2018-11-02T08:37:15.311Z,82.01
2018-11-02T08:38:15.278Z,82.12
2018-11-02T08:39:15.265Z,82.32
2018-11-02T08:40:15.249Z,82.42
2018-11-02T08:41:15.276Z,81.40
2018-11-02T08:42:15.227Z,81.29
2018-11-02T08:43:15.254Z,80.95
2018-11-02T08:44:15.207Z,81.50
2018-11-02T08:45:15.227Z,81.36
2018-11-02T08:46:15.236Z,80.88
2018-11-02T08:47:15.174Z,81.60
2018-11-02T08:48:15.171Z,81.40
2018-11-02T08:49:15.153Z,80.85
2018-11-02T08:50:15.201Z,81.05
2018-11-02T08:51:15.140Z,81.15
2018-11-02T08:52:15.140Z,80.85
2018-11-02T08:53:15.144Z,80.95
2018-11-02T08:54:15.096Z,81.77
2018-11-02T08:55:15.118Z,81.36
2018-11-02T08:56:15.078Z,81.36
2018-11-02T08:57:15.087Z,80.54
2018-11-02T08:58:15.157Z,80.30
2018-11-02T08:59:15.402Z,80.23
2018-11-02T09:00:15.138Z,79.82
2018-11-02T09:01:15.033Z,80.03
2018-11-02T09:02:15.013Z,80.23
2018-11-02T09:03:15.009Z,80.95
2018-11-02T09:04:15.029Z,80.64
2018-11-02T09:05:15.076Z,79.72
2018-11-02T09:06:15.011Z,79.21
2018-11-02T09:07:14.960Z,79.41
2018-11-02T09:08:14.943Z,79.31
2018-11-02T09:09:14.968Z,79.72
2018-11-02T09:10:14.925Z,79.82
2018-11-02T09:11:14.952Z,79.82
2018-11-02T09:12:14.969Z,79.00
2018-11-02T09:13:14.937Z,79.93
2018-11-02T09:14:14.907Z,79.41
2018-11-02T09:15:14.867Z,80.03
2018-11-02T09:16:14.856Z,79.93
2018-11-02T09:17:14.844Z,79.93
2018-11-02T09:18:14.860Z,80.23
2018-11-02T09:19:14.910Z,78.90
2018-11-02T09:20:14.848Z,78.66
2018-11-02T09:21:14.807Z,79.21
2018-11-02T09:22:14.805Z,79.31
2018-11-02T09:23:14.819Z,79.27
2018-11-02T09:24:14.779Z,78.80
2018-11-02T09:25:14.808Z,79.21
2018-11-02T09:26:14.748Z,78.08
2018-11-02T09:27:14.744Z,77.57
2018-11-02T09:28:14.751Z,78.39
2018-11-02T09:29:14.775Z,79.38
2018-11-02T09:30:14.767Z,78.66
2018-11-02T09:31:14.700Z,78.80
2018-11-02T09:32:14.681Z,79.07
2018-11-02T09:33:14.703Z,78.66
2018-11-02T09:34:14.689Z,77.84
2018-11-02T09:35:14.653Z,77.84
2018-11-02T09:36:14.662Z,77.84
2018-11-02T09:37:14.630Z,77.64
2018-11-02T09:38:14.615Z,77.39
2018-11-02T09:39:14.650Z,77.09
2018-11-02T09:40:14.675Z,76.57
2018-11-02T09:41:14.578Z,76.88
2018-11-02T09:42:14.574Z,77.19
2018-11-02T09:43:14.603Z,76.57
2018-11-02T09:44:14.545Z,75.86
2018-11-02T09:45:14.533Z,76.37
2018-11-02T09:46:14.530Z,75.86
2018-11-02T09:47:14.551Z,75.65
2018-11-02T09:48:14.503Z,75.35
2018-11-02T09:49:14.502Z,75.65
2018-11-02T09:50:14.483Z,75.65
2018-11-02T09:51:14.526Z,76.37
2018-11-02T09:52:14.497Z,75.65
2018-11-02T09:53:14.452Z,75.86
2018-11-02T09:54:14.446Z,75.76
2018-11-02T09:55:14.424Z,75.52
2018-11-02T09:56:14.417Z,75.14
2018-11-02T09:57:14.441Z,75.35
2018-11-02T09:58:14.388Z,75.35
2018-11-02T09:59:14.378Z,75.93
2018-11-02T10:00:14.404Z,76.13
2018-11-02T10:01:14.359Z,75.42
2018-11-02T10:02:14.594Z,74.80
2018-11-02T10:03:14.337Z,75.72
2018-11-02T10:04:14.330Z,75.31
2018-11-02T10:05:14.345Z,75.42
2018-11-02T10:06:14.300Z,75.01
2018-11-02T10:07:14.343Z,75.07
2018-11-02T10:08:14.285Z,74.35
2018-11-02T10:09:14.337Z,74.66
2018-11-02T10:10:14.316Z,74.87
2018-11-02T10:11:14.300Z,74.97
2018-11-02T10:12:14.234Z,74.76
2018-11-02T10:13:14.220Z,73.13
2018-11-02T10:14:14.211Z,73.94
2018-11-02T10:15:14.209Z,73.85
2018-11-02T10:16:14.225Z,73.13
2018-11-02T10:17:14.177Z,73.40
2018-11-02T10:18:14.165Z,73.44
2018-11-02T10:19:14.165Z,72.62
2018-11-02T10:20:14.149Z,72.82
2018-11-02T10:21:14.169Z,72.52
2018-11-02T10:22:14.118Z,72.92
2018-11-02T10:23:14.107Z,72.52
2018-11-02T10:24:14.126Z,73.03
2018-11-02T10:25:14.096Z,72.92
2018-11-02T10:26:14.176Z,71.80
2018-11-02T10:27:14.083Z,71.39
2018-11-02T10:28:14.097Z,70.16
2018-11-02T10:29:14.105Z,71.39
2018-11-02T10:30:14.073Z,71.49
2018-11-02T10:31:14.019Z,71.29
2018-11-02T10:32:14.007Z,71.59
2018-11-02T10:33:14.074Z,70.98
2018-11-02T10:34:14.022Z,70.88
2018-11-02T10:35:14.006Z,70.67
2018-11-02T10:36:13.969Z,70.95
2018-11-02T10:37:14.447Z,71.36
2018-11-02T10:38:13.943Z,71.36
2018-11-02T10:39:13.931Z,70.34
2018-11-02T10:40:13.948Z,70.54
2018-11-02T10:41:13.942Z,70.10
2018-11-02T10:42:13.962Z,71.01
2018-11-02T10:43:13.886Z,70.10
2018-11-02T10:44:13.891Z,70.00
2018-11-02T10:45:13.870Z,69.79
2018-11-02T10:46:13.885Z,69.89
2018-11-02T10:47:13.839Z,68.57
2018-11-02T10:48:13.842Z,67.85
2018-11-02T10:49:13.918Z,68.57
2018-11-02T10:50:13.815Z,69.28
2018-11-02T10:51:13.859Z,69.38
2018-11-02T10:52:13.788Z,69.07
2018-11-02T10:53:13.777Z,70.51
2018-11-02T10:54:13.785Z,69.28
2018-11-02T10:55:13.759Z,69.07
2018-11-02T10:56:13.753Z,68.57
2018-11-02T10:57:13.746Z,68.16
2018-11-02T10:58:13.745Z,68.74
2018-11-02T10:59:13.714Z,68.94
2018-11-02T11:00:13.700Z,68.87
2018-11-02T11:01:13.755Z,68.57
2018-11-02T11:02:13.672Z,68.77
2018-11-02T11:03:13.705Z,69.59
2018-11-02T11:04:13.650Z,68.84
2018-11-02T11:05:13.678Z,68.74
2018-11-02T11:06:13.706Z,68.53
2018-11-02T11:07:13.617Z,68.63
2018-11-02T11:08:13.615Z,68.80
2018-11-02T11:09:13.607Z,68.40
2018-11-02T11:10:13.619Z,68.09
2018-11-02T11:11:13.577Z,66.86
2018-11-02T11:12:13.720Z,66.56
2018-11-02T11:13:13.936Z,66.36
2018-11-02T11:14:13.548Z,65.67
2018-11-02T11:15:13.533Z,65.84
2018-11-02T11:16:13.517Z,65.74
2018-11-02T11:17:13.544Z,65.84
2018-11-02T11:18:13.505Z,66.46
2018-11-02T11:19:13.489Z,65.74
2018-11-02T11:20:13.479Z,65.23
2018-11-02T11:21:13.474Z,64.11
2018-11-02T11:22:13.523Z,63.02
2018-11-02T11:23:13.466Z,62.71
2018-11-02T11:24:13.435Z,62.92
2018-11-02T11:25:13.426Z,61.99
2018-11-02T11:26:13.415Z,61.69
2018-11-02T11:27:13.455Z,61.49
2018-11-02T11:28:13.398Z,61.49
2018-11-02T11:29:13.428Z,61.10
2018-11-02T11:30:13.365Z,61.31
2018-11-02T11:31:13.355Z,61.08
2018-11-02T11:32:13.379Z,61.51
2018-11-02T11:33:13.342Z,61.90
2018-11-02T11:34:13.328Z,62.43
2018-11-02T11:35:13.315Z,61.10
2018-11-02T11:36:13.325Z,61.61
2018-11-02T11:37:13.291Z,63.25
2018-11-02T11:38:13.346Z,62.13
2018-11-02T11:39:13.298Z,59.47
2018-11-02T11:40:13.257Z,59.67
2018-11-02T11:41:13.248Z,60.42
2018-11-02T11:42:13.241Z,61.13
2018-11-02T11:43:13.223Z,61.24
2018-11-02T11:44:13.250Z,61.51
2018-11-02T11:45:13.204Z,61.34
2018-11-02T11:46:13.227Z,61.54
2018-11-02T11:47:13.178Z,61.13
2018-11-02T11:48:13.201Z,60.62
2018-11-02T11:49:13.264Z,60.72
2018-11-02T11:50:13.152Z,61.13
2018-11-02T11:51:13.174Z,61.24
2018-11-02T11:52:13.121Z,60.83
2018-11-02T11:53:13.109Z,61.34
2018-11-02T11:54:13.135Z,62.16
2018-11-02T11:55:13.092Z,62.26
2018-11-02T11:56:13.122Z,62.36
2018-11-02T11:57:13.069Z,61.82
2018-11-02T11:58:13.056Z,61.61
2018-11-02T11:59:13.159Z,60.60
2018-11-02T12:00:13.033Z,60.69
2018-11-02T12:01:13.062Z,61.49
2018-11-02T12:02:13.056Z,61.18
2018-11-02T12:03:13.011Z,60.67
2018-11-02T12:04:13.014Z,61.38
2018-11-02T12:05:12.991Z,61.15
2018-11-02T12:06:13.002Z,61.25
2018-11-02T12:07:12.989Z,61.15
2018-11-02T12:08:12.943Z,61.22
2018-11-02T12:09:12.994Z,60.82
2018-11-02T12:10:12.995Z,59.77
2018-11-02T12:11:12.910Z,59.87
2018-11-02T12:12:12.908Z,59.36
2018-11-02T12:13:12.893Z,59.12
2018-11-02T12:14:12.879Z,59.84
2018-11-02T12:15:13.418Z,59.03
2018-11-02T12:16:12.857Z,59.53
2018-11-02T12:17:12.853Z,58.59
2018-11-02T12:18:12.930Z,59.03
2018-11-02T12:19:12.828Z,58.92
2018-11-02T12:20:12.851Z,59.33
2018-11-02T12:21:12.806Z,59.74
2018-11-02T12:22:12.801Z,59.84
2018-11-02T12:23:12.780Z,59.30
2018-11-02T12:24:12.779Z,59.71
2018-11-02T12:25:12.780Z,59.17
2018-11-02T12:26:12.793Z,57.85
2018-11-02T12:27:12.732Z,57.04
2018-11-02T12:28:12.820Z,57.54
2018-11-02T12:29:12.710Z,57.24
2018-11-02T12:30:12.704Z,57.34
2018-11-02T12:31:12.732Z,57.54
2018-11-02T12:32:12.689Z,56.83
2018-11-02T12:33:12.670Z,56.32
2018-11-02T12:34:12.754Z,55.91
2018-11-02T12:35:12.655Z,56.22
2018-11-02T12:36:12.666Z,55.91
2018-11-02T12:37:12.709Z,55.00
2018-11-02T12:38:12.615Z,54.79
2018-11-02T12:39:12.645Z,53.06
2018-11-02T12:40:12.623Z,52.43
2018-11-02T12:41:12.589Z,52.04
2018-11-02T12:42:12.611Z,52.76
2018-11-02T12:43:12.645Z,52.35
2018-11-02T12:44:12.609Z,52.45
2018-11-02T12:45:12.535Z,53.59
2018-11-02T12:46:12.551Z,53.72
2018-11-02T12:47:12.592Z,54.24
2018-11-02T12:48:12.528Z,54.57
2018-11-02T12:49:12.922Z,54.97
2018-11-02T12:50:12.574Z,55.07
2018-11-02T12:51:12.470Z,55.71
2018-11-02T12:52:12.512Z,56.53